Terminal Aerodrome Forecast
Issued by NWS

Home | Current Version | Previous Version | Graphics & Text | Print | Product List | Glossary On
Versions: 1 2 3 4 5 6 7 8 9 10 11 12 13 14
000
FTUS45 KGGW 241723
TAFGDV
TAF
KGDV 241723Z 2418/2518 34022G30KT 2SM -SHRA OVC007
     FM250100 32025G35KT 6SM BR VCSH SCT007 OVC011
     FM250600 31021G31KT P6SM SCT015 BKN035
     FM250900 30016G24KT P6SM FEW040 SCT100
     FM251200 30013KT P6SM FEW200=

USA.gov is the U.S. government's official web portal to all federal, state and local government web resources and services.